Time;durP1;ratioP1;P1;durP2;ratioP2;P2;SDS_P1;SDS_P2;PMS_P1;PMS_P2;Temp;Humidity;BMP_temperature;BMP_pressure;BME280_temperature;BME280_humidity;BME280_pressure;Samples;Min_cycle;Max_cycle;Signal;HPM_P1;HPM_P2
2020/12/31 00:00:15;;;;;;;41.22;17.27;;;7.30;99.90;;;;;;5042716;28;20109;-64
2020/12/31 00:02:41;;;;;;;47.33;16.13;;;7.30;99.90;;;;;;5047151;28;20048;-64
2020/12/31 00:05:08;;;;;;;46.15;15.80;;;7.20;99.90;;;;;;5032744;28;20146;-64
2020/12/31 00:07:35;;;;;;;39.03;14.57;;;7.20;99.90;;;;;;5035191;28;20055;-64
2020/12/31 00:34:43;;;;;;;45.55;14.60;;;7.10;99.90;;;;;;5032150;26;20110;-64
2020/12/31 00:37:09;;;;;;;49.55;16.35;;;7.10;99.90;;;;;;5065241;28;20060;-64
2020/12/31 00:39:36;;;;;;;44.30;15.45;;;7.10;99.90;;;;;;5057264;28;20037;-64
2020/12/31 00:42:02;;;;;;;44.92;13.98;;;7.10;99.90;;;;;;5062607;28;20426;-64
2020/12/31 00:44:29;;;;;;;46.25;16.02;;;7.10;99.90;;;;;;5048354;28;20051;-64
2020/12/31 00:46:55;;;;;;;54.10;16.95;;;7.00;99.90;;;;;;5050342;28;20045;-64
2020/12/31 00:49:22;;;;;;;50.30;15.77;;;7.00;99.90;;;;;;5038611;28;20580;-64
2020/12/31 00:51:49;;;;;;;49.92;16.80;;;7.00;99.90;;;;;;5038163;28;20057;-64
2020/12/31 00:54:15;;;;;;;46.22;16.02;;;7.00;99.90;;;;;;5060001;28;20817;-64
2020/12/31 00:56:42;;;;;;;58.47;18.10;;;7.00;99.90;;;;;;5041302;28;20584;-64
2020/12/31 00:59:09;;;;;;;53.45;16.33;;;7.00;99.90;;;;;;5045102;28;20114;-64
2020/12/31 01:01:36;;;;;;;46.42;16.13;;;7.00;99.90;;;;;;5046122;28;20450;-64
2020/12/31 01:04:03;;;;;;;49.50;15.68;;;7.00;99.90;;;;;;5062050;28;20063;-64
2020/12/31 01:06:37;;;;;;;50.83;17.90;;;7.00;99.90;;;;;;5058808;28;20079;-64
2020/12/31 01:09:08;;;;;;;46.13;15.82;;;7.00;99.90;;;;;;5061393;28;20041;-64
2020/12/31 01:11:36;;;;;;;46.20;15.57;;;6.90;99.90;;;;;;5066138;28;20047;-64
2020/12/31 01:14:04;;;;;;;45.28;17.90;;;7.00;99.90;;;;;;5068720;28;20033;-64
2020/12/31 01:16:31;;;;;;;54.67;16.50;;;6.90;99.90;;;;;;5043447;28;20055;-64
2020/12/31 01:18:58;;;;;;;44.00;15.45;;;6.90;99.90;;;;;;5030278;28;20048;-64
2020/12/31 01:21:24;;;;;;;49.50;16.70;;;7.60;99.90;;;;;;5044986;28;20060;-64
2020/12/31 01:23:51;;;;;;;49.22;15.93;;;7.00;99.90;;;;;;5058926;28;20519;-64
2020/12/31 01:26:30;;;;;;;71.60;17.38;;;6.90;99.90;;;;;;5060590;28;20049;-64
2020/12/31 01:28:56;;;;;;;52.38;16.15;;;6.80;99.90;;;;;;5043223;28;20059;-64
2020/12/31 01:31:23;;;;;;;60.60;16.83;;;6.80;99.90;;;;;;5066537;28;20036;-64
2020/12/31 01:33:50;;;;;;;56.33;15.52;;;6.80;99.90;;;;;;5058334;28;20095;-64
2020/12/31 01:36:16;;;;;;;59.75;16.85;;;6.80;99.90;;;;;;5066991;28;20534;-64
2020/12/31 01:38:44;;;;;;;54.47;15.88;;;6.70;99.90;;;;;;5067482;28;20774;-64
2020/12/31 01:41:11;;;;;;;59.97;17.02;;;6.70;99.90;;;;;;5047174;28;20048;-64
2020/12/31 01:43:38;;;;;;;57.65;16.45;;;6.70;99.90;;;;;;5057410;28;20078;-64
2020/12/31 01:46:09;;;;;;;61.00;18.08;;;6.70;99.90;;;;;;5053167;28;20076;-64
2020/12/31 01:48:37;;;;;;;67.78;17.95;;;6.70;99.90;;;;;;5048311;28;20040;-64
2020/12/31 01:51:04;;;;;;;55.67;15.63;;;6.70;99.90;;;;;;5056509;28;20048;-64
2020/12/31 01:53:30;;;;;;;51.47;15.82;;;6.70;99.90;;;;;;5049950;28;20047;-64
2020/12/31 01:56:02;;;;;;;58.72;16.50;;;6.70;99.90;;;;;;5069755;28;20048;-64
2020/12/31 01:58:29;;;;;;;56.37;16.47;;;6.70;99.90;;;;;;5064422;28;20052;-64
2020/12/31 02:00:57;;;;;;;50.63;14.82;;;6.70;99.90;;;;;;5058915;28;20051;-64
2020/12/31 02:03:23;;;;;;;42.88;13.82;;;6.70;99.90;;;;;;5065223;28;20055;-64
2020/12/31 02:05:50;;;;;;;51.10;13.30;;;6.70;99.90;;;;;;5050181;28;20059;-64
2020/12/31 02:08:17;;;;;;;51.58;14.82;;;6.70;99.90;;;;;;5059519;28;20044;-64
2020/12/31 02:10:43;;;;;;;49.90;14.02;;;6.70;99.90;;;;;;5046327;28;20056;-64
2020/12/31 02:13:10;;;;;;;49.15;13.48;;;6.80;99.90;;;;;;5047614;28;20798;-64
2020/12/31 02:15:36;;;;;;;48.88;13.70;;;6.80;99.90;;;;;;5064024;28;20036;-64
2020/12/31 02:18:03;;;;;;;37.90;12.30;;;6.80;99.90;;;;;;5043714;28;20052;-64
2020/12/31 02:20:29;;;;;;;43.85;12.85;;;6.80;99.90;;;;;;5063483;28;20097;-64
2020/12/31 02:22:56;;;;;;;43.45;12.75;;;6.80;99.90;;;;;;5057820;28;20059;-64
2020/12/31 02:25:22;;;;;;;36.55;11.82;;;6.80;99.90;;;;;;5064758;28;20480;-64
2020/12/31 02:27:48;;;;;;;33.05;11.80;;;6.80;99.90;;;;;;5060165;28;20794;-64
2020/12/31 02:30:15;;;;;;;34.03;11.80;;;6.90;99.90;;;;;;5049209;28;20044;-64
2020/12/31 02:32:41;;;;;;;38.67;11.80;;;6.80;99.90;;;;;;5063362;28;20048;-64
2020/12/31 02:35:08;;;;;;;36.42;11.88;;;6.80;99.90;;;;;;5043524;28;20491;-64
2020/12/31 02:37:34;;;;;;;40.67;12.75;;;6.80;99.90;;;;;;5043795;28;20102;-64
2020/12/31 02:40:01;;;;;;;35.65;11.65;;;6.80;99.90;;;;;;5065282;28;20040;-64
2020/12/31 02:42:28;;;;;;;34.67;11.43;;;6.80;99.90;;;;;;5049714;28;20063;-64
2020/12/31 02:44:54;;;;;;;34.22;10.90;;;6.80;99.90;;;;;;5067087;28;20106;-64
2020/12/31 02:47:21;;;;;;;33.03;11.23;;;6.80;99.90;;;;;;5046209;28;20044;-64
2020/12/31 02:49:47;;;;;;;39.05;10.90;;;6.70;99.90;;;;;;5043169;28;20049;-64
2020/12/31 02:52:14;;;;;;;30.17;10.13;;;6.80;99.90;;;;;;5041005;28;20078;-64
2020/12/31 02:54:40;;;;;;;31.98;11.20;;;6.70;99.90;;;;;;5047768;28;20492;-64
2020/12/31 02:57:07;;;;;;;37.92;11.23;;;6.80;99.90;;;;;;5036125;28;20052;-64
2020/12/31 02:59:33;;;;;;;33.95;10.20;;;6.80;99.90;;;;;;5067795;28;20052;-64
2020/12/31 03:01:59;;;;;;;41.78;13.10;;;6.80;99.90;;;;;;5066888;28;20106;-64
2020/12/31 03:04:26;;;;;;;34.90;11.35;;;6.80;99.90;;;;;;5066295;28;20075;-64
2020/12/31 03:06:54;;;;;;;35.10;10.32;;;6.70;99.90;;;;;;5062570;28;20045;-65
2020/12/31 03:09:20;;;;;;;37.70;11.73;;;6.70;99.90;;;;;;5064245;28;20048;-64
2020/12/31 03:11:47;;;;;;;34.70;10.90;;;6.70;99.90;;;;;;5049793;28;20697;-64
2020/12/31 03:14:13;;;;;;;32.63;11.00;;;6.70;99.90;;;;;;5063778;28;20883;-64
2020/12/31 03:16:39;;;;;;;38.05;11.90;;;6.70;99.90;;;;;;5055815;28;20428;-64
2020/12/31 03:19:06;;;;;;;32.60;11.05;;;6.70;99.90;;;;;;5042757;28;20045;-64
2020/12/31 03:21:32;;;;;;;35.42;11.60;;;6.70;99.90;;;;;;5033576;28;20051;-64
2020/12/31 03:23:59;;;;;;;30.98;11.23;;;6.70;99.90;;;;;;5054965;28;20491;-64
2020/12/31 03:26:25;;;;;;;31.58;10.80;;;6.70;99.90;;;;;;5028218;28;20049;-64
2020/12/31 03:28:52;;;;;;;35.25;11.57;;;6.70;99.90;;;;;;5064741;28;20045;-64
2020/12/31 03:31:18;;;;;;;33.30;11.68;;;6.60;99.90;;;;;;5047580;28;20045;-64
2020/12/31 03:33:45;;;;;;;39.65;12.45;;;6.60;99.90;;;;;;5044493;28;20045;-64
2020/12/31 03:36:12;;;;;;;37.47;12.18;;;6.60;99.90;;;;;;5044949;28;20087;-64
2020/12/31 03:38:38;;;;;;;33.92;12.90;;;6.60;99.90;;;;;;5030683;28;20063;-64
2020/12/31 03:41:05;;;;;;;34.10;12.20;;;6.60;99.90;;;;;;5050154;28;20084;-64
2020/12/31 03:43:31;;;;;;;37.30;13.60;;;6.60;99.90;;;;;;5049314;28;20045;-64
2020/12/31 03:45:58;;;;;;;32.47;12.02;;;6.50;99.90;;;;;;5061555;28;20052;-64
2020/12/31 03:48:24;;;;;;;41.20;13.48;;;6.40;99.90;;;;;;5047125;28;20048;-64
2020/12/31 03:50:51;;;;;;;35.83;12.27;;;6.40;99.90;;;;;;5063467;28;20047;-64
2020/12/31 03:53:17;;;;;;;33.88;12.27;;;6.30;99.90;;;;;;5040946;28;20447;-64
2020/12/31 03:55:44;;;;;;;33.78;12.07;;;6.30;99.90;;;;;;5038620;28;20068;-64
2020/12/31 03:58:10;;;;;;;33.58;12.18;;;6.30;99.90;;;;;;5045874;28;20454;-64
2020/12/31 04:00:37;;;;;;;45.38;13.77;;;6.30;99.90;;;;;;5059977;28;20040;-64
2020/12/31 04:03:03;;;;;;;41.13;13.13;;;6.30;99.90;;;;;;5044162;28;20090;-64
2020/12/31 04:05:30;;;;;;;42.00;12.00;;;6.30;99.90;;;;;;5046911;28;20052;-64
2020/12/31 04:07:56;;;;;;;35.95;11.95;;;6.30;99.90;;;;;;5050614;28;20628;-64
2020/12/31 04:10:25;;;;;;;38.67;12.45;;;6.20;99.90;;;;;;5029932;28;20401;-64
2020/12/31 04:12:51;;;;;;;36.72;12.30;;;6.20;99.90;;;;;;5052150;28;20040;-64
2020/12/31 04:15:18;;;;;;;43.60;12.98;;;6.20;99.90;;;;;;5063967;28;20780;-64
2020/12/31 04:17:44;;;;;;;36.42;11.98;;;6.20;99.90;;;;;;5065897;28;20037;-64
2020/12/31 04:20:11;;;;;;;38.35;12.77;;;6.20;99.90;;;;;;5060052;28;20054;-64
2020/12/31 04:22:37;;;;;;;43.63;12.68;;;6.20;99.90;;;;;;5064345;28;20328;-64
2020/12/31 04:25:04;;;;;;;39.08;12.27;;;6.20;99.90;;;;;;5045985;28;20384;-64
2020/12/31 04:27:31;;;;;;;41.83;11.70;;;6.20;99.90;;;;;;5046600;28;20052;-64
2020/12/31 04:29:57;;;;;;;41.38;12.27;;;6.20;99.90;;;;;;5055966;28;20266;-64
2020/12/31 04:32:24;;;;;;;51.33;12.48;;;6.20;99.90;;;;;;5028750;28;20710;-64
2020/12/31 04:34:50;;;;;;;42.42;12.90;;;6.10;99.90;;;;;;5049089;28;20449;-64
2020/12/31 04:37:17;;;;;;;42.55;11.80;;;6.20;99.90;;;;;;5048855;28;20557;-64
2020/12/31 04:39:44;;;;;;;55.22;12.23;;;6.10;99.90;;;;;;5063546;28;20041;-64
2020/12/31 04:42:11;;;;;;;43.97;12.90;;;6.10;99.90;;;;;;5073312;28;20483;-64
2020/12/31 04:44:38;;;;;;;51.33;14.63;;;6.10;99.90;;;;;;5045582;28;20052;-64
2020/12/31 04:47:05;;;;;;;54.38;14.98;;;6.10;99.90;;;;;;5070040;28;20063;-64
2020/12/31 04:49:50;;;;;;;51.63;14.60;;;6.10;99.90;;;;;;5053766;28;20044;-64
2020/12/31 04:52:17;;;;;;;53.95;15.00;;;6.10;99.90;;;;;;5068467;28;20146;-64
2020/12/31 04:54:44;;;;;;;48.22;14.05;;;6.00;99.90;;;;;;5043132;28;20488;-64
2020/12/31 04:57:11;;;;;;;49.90;12.77;;;6.00;99.90;;;;;;5049862;28;20045;-64
2020/12/31 04:59:38;;;;;;;45.50;12.68;;;6.00;99.90;;;;;;5074638;28;20106;-65
2020/12/31 05:02:11;;;;;;;47.65;12.73;;;6.00;99.90;;;;;;5073485;28;20037;-65
2020/12/31 05:04:38;;;;;;;;;;;6.00;99.90;;;;;;5042288;28;20094;-65
2020/12/31 05:07:07;;;;;;;44.35;11.55;;;6.00;99.90;;;;;;5034693;28;19930;-64
2020/12/31 05:09:34;;;;;;;51.00;13.00;;;6.00;99.90;;;;;;5038611;28;20055;-64
2020/12/31 05:12:00;;;;;;;49.13;14.23;;;6.00;99.90;;;;;;5058199;28;20040;-64
2020/12/31 05:14:33;;;;;;;50.65;12.90;;;6.00;99.90;;;;;;5050153;28;20048;-64
2020/12/31 05:17:16;;;;;;;44.25;12.38;;;6.00;99.90;;;;;;5044063;28;20128;-64
2020/12/31 05:19:44;;;;;;;48.40;12.43;;;6.00;99.90;;;;;;5036678;28;20053;-64
2020/12/31 05:22:18;;;;;;;46.13;13.43;;;6.00;99.90;;;;;;5053033;28;20114;-64
2020/12/31 05:24:47;;;;;;;59.55;14.20;;;6.00;99.90;;;;;;5048605;28;20054;-64
2020/12/31 05:27:21;;;;;;;45.90;13.48;;;6.00;99.90;;;;;;5046817;28;20052;-64
2020/12/31 05:30:06;;;;;;;52.10;13.05;;;6.00;99.90;;;;;;5052570;28;20056;-64
2020/12/31 05:32:37;;;;;;;57.30;13.07;;;6.00;99.90;;;;;;5071057;28;20051;-64
2020/12/31 05:35:18;;;;;;;47.22;10.68;;;6.00;99.90;;;;;;5043905;28;20041;-64
2020/12/31 05:37:45;;;;;;;55.88;11.80;;;5.90;99.90;;;;;;5068319;28;20082;-65
2020/12/31 05:40:13;;;;;;;50.42;12.88;;;5.90;99.90;;;;;;5054578;28;20575;-66
2020/12/31 05:42:42;;;;;;;47.65;12.35;;;6.00;99.90;;;;;;5060649;28;20499;-66
2020/12/31 05:45:16;;;;;;;47.35;12.02;;;6.00;99.90;;;;;;5035825;28;20052;-66
2020/12/31 05:47:54;;;;;;;53.00;14.80;;;5.90;99.90;;;;;;5047666;28;20113;-66
2020/12/31 05:50:25;;;;;;;50.50;13.82;;;5.90;99.90;;;;;;5071092;28;20037;-66
2020/12/31 05:52:53;;;;;;;55.20;14.80;;;6.00;99.90;;;;;;5071909;28;20037;-64
2020/12/31 05:55:22;;;;;;;52.75;14.15;;;6.00;99.90;;;;;;5068469;28;20033;-64
2020/12/31 05:57:49;;;;;;;46.92;13.05;;;6.00;99.90;;;;;;5032293;28;20052;-64
2020/12/31 06:00:21;;;;;;;56.33;15.27;;;6.00;99.90;;;;;;5076818;28;20082;-64
2020/12/31 06:02:56;;;;;;;48.97;12.77;;;6.00;99.90;;;;;;5069094;28;20384;-64
2020/12/31 06:05:23;;;;;;;49.30;12.15;;;6.00;99.90;;;;;;5068407;28;20059;-64
2020/12/31 06:07:58;;;;;;;54.50;13.52;;;6.00;99.90;;;;;;5036821;28;20047;-64
2020/12/31 06:10:30;;;;;;;45.88;13.00;;;6.00;99.90;;;;;;5049749;28;20047;-64
2020/12/31 06:13:15;;;;;;;47.03;11.93;;;6.00;99.90;;;;;;5050427;28;20728;-64
2020/12/31 06:15:49;;;;;;;43.58;12.73;;;6.00;99.90;;;;;;5049556;28;20040;-64
2020/12/31 06:18:22;;;;;;;49.75;13.90;;;6.00;99.90;;;;;;5051467;28;20040;-64
2020/12/31 06:21:01;;;;;;;52.77;13.07;;;6.00;99.90;;;;;;5044446;28;20055;-64
2020/12/31 06:23:36;;;;;;;45.40;12.85;;;6.00;99.90;;;;;;5055222;28;20057;-64
2020/12/31 06:26:16;;;;;;;52.17;14.27;;;6.10;99.90;;;;;;5045069;28;20045;-64
2020/12/31 06:28:46;;;;;;;53.95;14.70;;;6.10;99.90;;;;;;5046810;28;20051;-64
2020/12/31 06:31:12;;;;;;;55.15;15.90;;;6.10;99.90;;;;;;5045175;28;20049;-64
2020/12/31 06:33:45;;;;;;;53.25;15.63;;;6.10;99.90;;;;;;5043204;28;20032;-64
2020/12/31 06:36:13;;;;;;;60.17;17.27;;;6.10;99.90;;;;;;5065247;28;20056;-64
2020/12/31 06:38:45;;;;;;;68.25;17.42;;;6.20;99.90;;;;;;5052025;28;20044;-64
2020/12/31 06:41:30;;;;;;;50.25;14.40;;;6.10;99.90;;;;;;5050010;28;20055;-64
2020/12/31 06:44:12;;;;;;;55.10;14.65;;;6.10;99.90;;;;;;5036500;28;20055;-64
2020/12/31 06:46:50;;;;;;;47.85;14.15;;;6.10;99.90;;;;;;5050777;28;20558;-64
2020/12/31 06:49:17;;;;;;;45.45;13.35;;;6.10;99.90;;;;;;5041580;28;20052;-64
2020/12/31 06:51:44;;;;;;;46.45;12.13;;;6.10;99.90;;;;;;5047608;28;20061;-64
2020/12/31 06:54:11;;;;;;;38.17;12.77;;;6.10;99.90;;;;;;5043080;28;20492;-64
2020/12/31 06:56:48;;;;;;;54.30;15.50;;;6.10;99.90;;;;;;5044148;28;20126;-64
2020/12/31 06:59:31;;;;;;;47.90;14.05;;;6.10;99.90;;;;;;5051347;28;20483;-64
2020/12/31 07:02:00;;;;;;;50.25;13.43;;;6.10;99.90;;;;;;5041870;28;20048;-64
2020/12/31 07:04:35;;;;;;;43.40;11.93;;;6.10;99.90;;;;;;5070802;28;20040;-61
2020/12/31 07:07:25;;;;;;;45.15;12.13;;;6.10;99.90;;;;;;5068264;28;20045;-61
2020/12/31 07:09:56;;;;;;;44.25;11.95;;;6.20;99.90;;;;;;5049021;28;20068;-61
2020/12/31 07:12:38;;;;;;;45.50;11.73;;;6.20;99.90;;;;;;5040603;28;20037;-61
2020/12/31 07:15:06;;;;;;;38.53;11.70;;;6.20;99.90;;;;;;5046934;28;20068;-61
2020/12/31 07:17:43;;;;;;;40.08;12.05;;;6.30;99.90;;;;;;5047108;28;20094;-61
2020/12/31 07:20:15;;;;;;;42.90;11.60;;;6.30;99.90;;;;;;5066317;28;20060;-60
2020/12/31 07:22:43;;;;;;;38.55;10.90;;;6.30;99.90;;;;;;5056490;28;20048;-60
2020/12/31 07:25:14;;;;;;;34.20;10.65;;;6.40;99.90;;;;;;5052656;28;20064;-60
2020/12/31 07:27:46;;;;;;;38.33;12.02;;;6.40;99.90;;;;;;5064784;28;20467;-61
2020/12/31 07:30:15;;;;;;;32.90;10.98;;;6.40;99.90;;;;;;5050367;28;20052;-60
2020/12/31 07:33:04;;;;;;;43.17;10.43;;;6.40;99.90;;;;;;5044857;28;20078;-61
2020/12/31 07:35:41;;;;;;;32.35;10.50;;;6.40;99.90;;;;;;5055309;28;20037;-61
2020/12/31 07:38:18;;;;;;;35.25;9.88;;;6.40;99.90;;;;;;5045428;28;20059;-61
2020/12/31 07:40:54;;;;;;;32.20;10.98;;;6.40;99.90;;;;;;5069232;28;20094;-61
2020/12/31 07:43:26;;;;;;;38.60;10.93;;;6.40;99.90;;;;;;5051793;28;20040;-61
2020/12/31 07:45:53;;;;;;;34.95;10.40;;;6.40;99.90;;;;;;5070187;28;20496;-61
2020/12/31 07:48:21;;;;;;;30.85;9.82;;;6.40;99.90;;;;;;5067025;28;20527;-61
2020/12/31 07:51:05;;;;;;;30.17;9.38;;;6.40;99.90;;;;;;5064275;28;20045;-61
2020/12/31 07:53:31;;;;;;;32.90;9.88;;;6.40;99.90;;;;;;5066917;28;20052;-61
2020/12/31 07:55:58;;;;;;;29.92;9.50;;;6.50;99.90;;;;;;5068529;28;20037;-61
2020/12/31 07:58:29;;;;;;;31.30;9.30;;;6.40;99.90;;;;;;5054861;28;20068;-61
2020/12/31 08:00:59;;;;;;;31.95;9.32;;;6.50;99.90;;;;;;5039899;28;20102;-61
2020/12/31 08:03:25;;;;;;;28.60;9.00;;;6.40;99.90;;;;;;5067873;28;20059;-61
2020/12/31 08:06:11;;;;;;;24.98;8.43;;;6.50;99.90;;;;;;5051746;28;20420;-60
2020/12/31 08:08:38;;;;;;;24.55;9.77;;;6.50;99.90;;;;;;5067877;28;20048;-61
2020/12/31 08:11:09;;;;;;;29.90;9.63;;;6.60;99.90;;;;;;5047606;28;20094;-61
2020/12/31 08:13:36;;;;;;;28.02;8.32;;;6.50;99.90;;;;;;5050254;28;20123;-61
2020/12/31 08:16:03;;;;;;;27.17;9.02;;;6.50;99.90;;;;;;5050988;28;20048;-61
2020/12/31 08:18:31;;;;;;;34.88;9.90;;;6.50;99.90;;;;;;5054948;28;20051;-61
2020/12/31 08:21:04;;;;;;;29.10;9.30;;;6.60;99.90;;;;;;5068453;28;20045;-61
2020/12/31 08:23:37;;;;;;;26.63;9.73;;;6.60;99.90;;;;;;5069766;28;20047;-61
2020/12/31 08:26:07;;;;;;;;;;;6.60;99.90;;;;;;5071134;28;20117;-61
2020/12/31 08:28:36;;;;;;;27.92;9.38;;;6.60;99.90;;;;;;5047052;28;19928;-61
2020/12/31 08:31:10;;;;;;;28.80;9.20;;;6.60;99.90;;;;;;5053756;28;20127;-61
2020/12/31 08:33:38;;;;;;;27.35;9.32;;;6.50;99.90;;;;;;5072220;28;20040;-61
2020/12/31 08:36:06;;;;;;;27.80;9.18;;;6.50;99.90;;;;;;5059934;28;20041;-61
2020/12/31 08:38:38;;;;;;;31.98;9.45;;;6.50;99.90;;;;;;5054271;28;20119;-61
2020/12/31 08:41:07;;;;;;;27.73;7.80;;;6.50;99.90;;;;;;5053027;28;20143;-61
2020/12/31 08:43:35;;;;;;;26.23;9.23;;;6.50;99.90;;;;;;5069719;28;20048;-61
2020/12/31 08:46:04;;;;;;;26.20;9.25;;;6.50;99.90;;;;;;5054435;28;20199;-63
2020/12/31 08:48:35;;;;;;;26.85;8.95;;;6.50;99.90;;;;;;5067121;28;20364;-63
2020/12/31 08:51:14;;;;;;;27.67;7.95;;;6.50;99.90;;;;;;5042825;28;20376;-63
2020/12/31 08:54:01;;;;;;;23.48;7.70;;;6.50;99.90;;;;;;5071512;28;20049;-64
2020/12/31 08:56:29;;;;;;;25.17;8.15;;;6.50;99.90;;;;;;5054030;28;20049;-64
2020/12/31 08:59:06;;;;;;;26.65;7.68;;;6.50;99.90;;;;;;5074913;28;20490;-64
2020/12/31 09:01:32;;;;;;;30.23;8.95;;;6.60;99.90;;;;;;5078116;28;20036;-63
2020/12/31 09:04:06;;;;;;;29.50;9.32;;;6.60;99.90;;;;;;5071564;28;20043;-64
2020/12/31 09:06:33;;;;;;;24.02;8.38;;;6.60;99.90;;;;;;5066004;28;20395;-62
2020/12/31 09:09:01;;;;;;;31.60;8.55;;;6.60;99.90;;;;;;5067100;28;20037;-62
2020/12/31 09:11:29;;;;;;;23.35;7.75;;;6.60;99.90;;;;;;5068267;28;20128;-61
2020/12/31 09:14:07;;;;;;;23.98;9.32;;;6.70;99.90;;;;;;5048202;28;20044;-61
2020/12/31 09:16:34;;;;;;;21.95;8.38;;;6.70;99.90;;;;;;5051303;28;20115;-61
2020/12/31 09:19:02;;;;;;;26.98;9.85;;;6.70;99.90;;;;;;5070885;28;20041;-61
2020/12/31 09:21:30;;;;;;;29.02;10.25;;;6.80;99.90;;;;;;5064317;28;20044;-61
2020/12/31 09:24:18;;;;;;;27.98;9.70;;;6.80;99.90;;;;;;5044425;28;20090;-62
2020/12/31 09:26:51;;;;;;;25.13;8.68;;;6.90;99.90;;;;;;5062735;28;20060;-61
2020/12/31 09:29:19;;;;;;;23.63;10.15;;;6.90;99.90;;;;;;5063901;28;20524;-62
2020/12/31 09:31:46;;;;;;;28.13;10.45;;;6.90;99.90;;;;;;5069323;28;20032;-62
2020/12/31 09:34:20;;;;;;;27.13;9.75;;;6.90;99.90;;;;;;5047558;28;20041;-62
2020/12/31 09:36:47;;;;;;;27.13;10.07;;;6.90;99.90;;;;;;5051060;28;20052;-62
2020/12/31 09:39:14;;;;;;;26.88;9.48;;;6.90;99.90;;;;;;5036344;28;20044;-62
2020/12/31 09:41:40;;;;;;;25.38;9.25;;;6.90;99.90;;;;;;5067775;28;20095;-62
2020/12/31 09:44:07;;;;;;;22.55;8.13;;;7.00;99.90;;;;;;5068886;28;20037;-62
2020/12/31 09:46:33;;;;;;;22.30;8.15;;;7.00;99.90;;;;;;5048243;28;20048;-62
2020/12/31 09:49:00;;;;;;;28.95;10.30;;;7.00;99.90;;;;;;5065952;28;20079;-62
2020/12/31 09:51:26;;;;;;;21.48;9.45;;;7.10;99.90;;;;;;5050019;28;20055;-62
2020/12/31 09:53:53;;;;;;;24.95;8.80;;;7.20;99.90;;;;;;5069045;28;20488;-62
2020/12/31 09:56:19;;;;;;;23.65;8.65;;;7.20;99.90;;;;;;5065691;28;20037;-62
2020/12/31 09:58:46;;;;;;;17.50;7.60;;;7.10;99.90;;;;;;5068342;28;20044;-62
2020/12/31 10:01:15;;;;;;;18.75;8.10;;;7.20;99.90;;;;;;5031101;28;20050;-62
2020/12/31 10:03:41;;;;;;;25.05;8.90;;;7.10;99.90;;;;;;5046380;28;20461;-62
2020/12/31 10:06:08;;;;;;;18.75;7.15;;;7.10;99.90;;;;;;5061384;28;20498;-61
2020/12/31 10:08:34;;;;;;;21.25;6.88;;;7.10;99.90;;;;;;5070847;28;20057;-62
2020/12/31 10:11:01;;;;;;;23.20;7.13;;;7.10;99.90;;;;;;5068498;28;20797;-62
2020/12/31 10:13:28;;;;;;;20.08;7.47;;;7.10;99.90;;;;;;5051765;28;20041;-62
2020/12/31 10:16:01;;;;;;;22.77;7.28;;;7.10;99.90;;;;;;5031166;28;20044;-62
2020/12/31 10:18:28;;;;;;;21.25;7.63;;;7.10;99.90;;;;;;5050120;28;20618;-61
2020/12/31 10:20:55;;;;;;;21.83;7.63;;;7.10;99.90;;;;;;5047339;28;20526;-61
2020/12/31 10:23:21;;;;;;;20.13;7.40;;;7.00;99.90;;;;;;5068578;28;20048;-62
2020/12/31 10:25:48;;;;;;;21.92;7.82;;;7.00;99.90;;;;;;5051361;28;20040;-62
2020/12/31 10:28:17;;;;;;;19.60;6.90;;;7.00;99.90;;;;;;5065590;28;20055;-62
2020/12/31 10:30:44;;;;;;;19.27;7.30;;;7.00;99.90;;;;;;5064939;28;20040;-61
2020/12/31 10:33:11;;;;;;;19.00;7.10;;;7.00;99.90;;;;;;5066475;28;20043;-63
2020/12/31 10:35:37;;;;;;;18.70;6.57;;;7.00;99.90;;;;;;5057684;28;20068;-62
2020/12/31 10:38:04;;;;;;;21.48;7.25;;;7.00;99.90;;;;;;5067172;28;20048;-62
2020/12/31 10:40:31;;;;;;;14.35;6.50;;;7.00;99.90;;;;;;5070297;28;20048;-62
2020/12/31 10:42:58;;;;;;;15.35;5.70;;;7.00;99.90;;;;;;5052796;28;20463;-62
2020/12/31 10:45:25;;;;;;;15.82;6.70;;;7.10;99.90;;;;;;5065611;28;20063;-62
2020/12/31 10:47:52;;;;;;;16.20;6.75;;;7.10;99.90;;;;;;5067965;28;20055;-62
2020/12/31 10:50:19;;;;;;;24.50;8.15;;;7.10;99.90;;;;;;5061888;28;20499;-62
2020/12/31 10:52:45;;;;;;;20.85;7.57;;;7.20;99.90;;;;;;5069753;28;20483;-62
2020/12/31 10:55:12;;;;;;;20.88;7.50;;;7.30;99.90;;;;;;5050652;28;20045;-62
2020/12/31 10:57:38;;;;;;;17.40;7.50;;;7.30;99.90;;;;;;5075778;28;20048;-62
2020/12/31 11:00:05;;;;;;;18.80;6.75;;;7.40;99.90;;;;;;5048683;28;20052;-62
2020/12/31 11:02:31;;;;;;;18.63;8.32;;;7.40;99.90;;;;;;5048562;28;20476;-63
2020/12/31 11:04:58;;;;;;;24.45;8.93;;;7.40;99.90;;;;;;5065423;28;20046;-62
2020/12/31 11:07:26;;;;;;;23.17;8.80;;;7.50;99.90;;;;;;5053000;28;20044;-62
2020/12/31 11:09:53;;;;;;;20.48;8.23;;;7.50;99.90;;;;;;5068591;28;20047;-62
2020/12/31 11:12:19;;;;;;;21.35;8.05;;;7.50;99.90;;;;;;5057067;28;20051;-61
2020/12/31 11:14:46;;;;;;;22.33;8.07;;;7.50;99.90;;;;;;5051043;28;20038;-61
2020/12/31 11:17:12;;;;;;;20.20;7.97;;;7.50;99.90;;;;;;5064761;28;20105;-61
2020/12/31 11:19:39;;;;;;;19.33;7.18;;;7.60;99.90;;;;;;5030411;28;20063;-61
2020/12/31 11:22:07;;;;;;;19.95;7.78;;;7.70;99.90;;;;;;5061831;28;20074;-61
2020/12/31 11:24:33;;;;;;;18.27;7.13;;;7.70;99.90;;;;;;5028676;28;20048;-61
2020/12/31 11:27:00;;;;;;;23.58;8.98;;;7.70;99.90;;;;;;5072091;28;20092;-61
2020/12/31 11:29:26;;;;;;;19.73;7.38;;;7.70;99.90;;;;;;5070758;28;20427;-61
2020/12/31 11:31:52;;;;;;;17.35;7.65;;;7.80;99.90;;;;;;5063244;28;20663;-61
2020/12/31 11:34:26;;;;;;;20.67;7.50;;;7.80;99.90;;;;;;5063580;28;20051;-61
2020/12/31 11:36:53;;;;;;;19.40;6.72;;;7.80;99.90;;;;;;5029298;28;20053;-61
2020/12/31 11:39:20;;;;;;;16.90;6.88;;;8.00;99.90;;;;;;5051047;28;20041;-61
2020/12/31 11:41:48;;;;;;;20.58;7.00;;;8.00;99.90;;;;;;5030723;28;20037;-61
2020/12/31 11:44:15;;;;;;;20.58;8.43;;;8.00;99.90;;;;;;5037039;28;20049;-62
2020/12/31 11:46:45;;;;;;;17.80;7.78;;;8.00;99.90;;;;;;5055262;28;20492;-65
2020/12/31 11:49:11;;;;;;;19.23;6.82;;;8.10;99.90;;;;;;5047895;28;20541;-59
2020/12/31 11:51:38;;;;;;;16.02;6.20;;;8.20;99.90;;;;;;5052401;28;20683;-59
2020/12/31 11:54:04;;;;;;;18.40;6.55;;;8.20;99.90;;;;;;5023317;28;20098;-62
2020/12/31 11:56:31;;;;;;;22.83;8.93;;;8.30;99.90;;;;;;5055469;28;20049;-62
2020/12/31 11:58:57;;;;;;;20.20;8.30;;;8.30;99.90;;;;;;5050185;28;20041;-61
2020/12/31 12:01:24;;;;;;;16.98;7.15;;;8.30;99.90;;;;;;5037985;28;20446;-62
2020/12/31 12:03:50;;;;;;;16.75;6.47;;;8.30;99.90;;;;;;5055008;28;20716;-62
2020/12/31 12:06:17;;;;;;;16.58;6.43;;;8.20;99.90;;;;;;5054710;28;20033;-61
2020/12/31 12:08:43;;;;;;;16.77;6.25;;;8.30;99.90;;;;;;5032887;28;20505;-62
2020/12/31 12:11:10;;;;;;;15.50;6.30;;;8.30;99.90;;;;;;5055164;28;20435;-62
2020/12/31 12:13:36;;;;;;;14.45;6.38;;;8.30;99.90;;;;;;5050445;28;20056;-62
2020/12/31 12:16:03;;;;;;;15.82;6.15;;;8.30;99.90;;;;;;5054656;28;20442;-62
2020/12/31 12:18:30;;;;;;;14.35;5.53;;;8.40;99.90;;;;;;5054773;28;20049;-62
2020/12/31 12:21:18;;;;;;;13.45;5.88;;;8.40;99.90;;;;;;5034996;28;20139;-62
2020/12/31 12:23:45;;;;;;;;;;;8.40;99.90;;;;;;5038514;28;20066;-63
2020/12/31 12:26:16;;;;;;;14.38;5.13;;;8.40;99.90;;;;;;5023259;28;19925;-62
2020/12/31 12:28:42;;;;;;;16.85;7.30;;;8.30;99.90;;;;;;5032339;28;20045;-62
2020/12/31 12:31:09;;;;;;;15.88;6.30;;;8.30;99.90;;;;;;5037331;28;20037;-61
2020/12/31 12:33:35;;;;;;;16.35;6.03;;;8.30;99.90;;;;;;5053770;28;20052;-62
2020/12/31 12:36:03;;;;;;;17.58;7.07;;;8.30;99.90;;;;;;5056301;28;20066;-62
2020/12/31 12:38:29;;;;;;;17.67;7.72;;;8.20;99.90;;;;;;5069232;28;20052;-65
2020/12/31 12:40:57;;;;;;;15.55;6.57;;;8.30;99.90;;;;;;5068272;28;20502;-63
2020/12/31 12:43:24;;;;;;;21.35;9.15;;;8.20;99.90;;;;;;5056080;28;20052;-63
2020/12/31 12:45:50;;;;;;;22.15;9.48;;;8.20;99.90;;;;;;5053997;28;20143;-63
2020/12/31 12:48:17;;;;;;;20.23;9.20;;;8.20;99.90;;;;;;5049906;28;20041;-63
2020/12/31 12:50:43;;;;;;;18.88;8.35;;;8.30;99.90;;;;;;5049037;28;20056;-62
2020/12/31 12:53:10;;;;;;;20.20;8.38;;;8.30;99.90;;;;;;5072186;28;20101;-62
2020/12/31 12:55:37;;;;;;;21.08;9.32;;;8.30;99.90;;;;;;5053203;28;20051;-62
2020/12/31 12:58:03;;;;;;;20.13;8.18;;;8.30;99.90;;;;;;5071187;28;20040;-62
2020/12/31 13:00:30;;;;;;;15.48;6.32;;;8.20;99.90;;;;;;5069876;28;20041;-62
2020/12/31 13:02:56;;;;;;;14.15;6.55;;;8.20;99.90;;;;;;5070577;28;20099;-62
2020/12/31 13:05:23;;;;;;;15.25;7.13;;;8.20;99.90;;;;;;5069211;28;20064;-62
2020/12/31 13:07:50;;;;;;;19.80;8.15;;;8.20;99.90;;;;;;5071302;28;20446;-61
2020/12/31 13:10:16;;;;;;;18.65;8.93;;;8.20;99.90;;;;;;5069260;28;20123;-61
2020/12/31 13:12:43;;;;;;;19.55;8.40;;;8.30;99.90;;;;;;5069271;28;20130;-61
2020/12/31 13:15:09;;;;;;;16.38;7.03;;;8.30;99.90;;;;;;5046722;28;20059;-62